createdAt,value
2022-12-08T00:00:09.528Z,2.40
2022-12-08T00:02:38.049Z,2.40
2022-12-08T00:05:24.657Z,2.40
2022-12-08T00:08:10.722Z,2.50
2022-12-08T00:10:48.952Z,2.50
2022-12-08T00:13:18.085Z,2.50
2022-12-08T00:15:48.049Z,2.60
2022-12-08T00:18:16.988Z,2.60
2022-12-08T00:20:45.620Z,2.50
2022-12-08T00:23:14.090Z,2.50
2022-12-08T00:25:42.538Z,2.50
2022-12-08T00:28:11.043Z,2.40
2022-12-08T00:30:41.548Z,2.40
2022-12-08T00:33:11.921Z,2.40
2022-12-08T00:35:43.206Z,2.40
2022-12-08T00:38:11.917Z,2.50
2022-12-08T00:40:44.627Z,2.50
2022-12-08T00:43:13.208Z,2.40
2022-12-08T00:45:41.921Z,2.40
2022-12-08T00:48:12.738Z,2.40
2022-12-08T00:50:41.208Z,2.40
2022-12-08T00:53:09.678Z,2.40
2022-12-08T00:55:38.171Z,2.50
2022-12-08T00:58:06.749Z,2.50
2022-12-08T01:00:35.301Z,2.40
2022-12-08T01:03:03.885Z,2.50
2022-12-08T01:05:33.817Z,2.50
2022-12-08T01:08:02.416Z,2.50
2022-12-08T01:10:30.970Z,2.50
2022-12-08T01:13:00.362Z,2.50
2022-12-08T01:15:28.839Z,2.50
2022-12-08T01:17:57.429Z,2.50
2022-12-08T01:20:26.199Z,2.50
2022-12-08T01:22:56.081Z,2.60
2022-12-08T01:25:24.532Z,2.50
2022-12-08T01:27:54.237Z,2.50
2022-12-08T01:30:22.928Z,2.60
2022-12-08T01:32:51.459Z,2.60
2022-12-08T01:35:19.988Z,2.60
2022-12-08T01:37:48.550Z,2.60
2022-12-08T01:40:18.937Z,2.60
2022-12-08T01:42:47.400Z,2.60
2022-12-08T01:45:22.839Z,2.60
2022-12-08T01:47:57.104Z,2.60
2022-12-08T01:50:26.374Z,2.60
2022-12-08T01:52:58.778Z,2.60
2022-12-08T01:55:32.740Z,2.60
2022-12-08T01:58:07.318Z,2.50
2022-12-08T02:00:35.899Z,2.50
2022-12-08T02:03:08.428Z,2.50
2022-12-08T02:05:39.058Z,2.50
2022-12-08T02:08:10.090Z,2.40
2022-12-08T02:10:41.699Z,2.50
2022-12-08T02:13:12.759Z,2.50
2022-12-08T02:15:49.085Z,2.60
2022-12-08T02:18:40.697Z,2.60
2022-12-08T02:21:14.309Z,2.70
2022-12-08T02:23:53.308Z,2.70
2022-12-08T02:26:59.158Z,2.70
2022-12-08T02:30:05.884Z,2.70
2022-12-08T02:33:03.570Z,2.70
2022-12-08T02:35:40.684Z,2.70
2022-12-08T02:38:18.238Z,2.70
2022-12-08T02:40:53.948Z,2.60
2022-12-08T02:43:29.293Z,2.60
2022-12-08T02:46:02.931Z,2.60
2022-12-08T02:48:31.810Z,2.70
2022-12-08T02:51:01.849Z,2.70
2022-12-08T02:53:33.538Z,2.70
2022-12-08T02:56:10.558Z,2.70
2022-12-08T02:59:03.679Z,2.70
2022-12-08T03:01:54.058Z,2.80
2022-12-08T03:04:33.550Z,2.80
2022-12-08T03:07:09.536Z,2.80
2022-12-08T03:09:43.539Z,2.80
2022-12-08T03:12:19.675Z,2.90
2022-12-08T03:14:52.505Z,2.80
2022-12-08T03:17:22.177Z,2.90
2022-12-08T03:19:51.518Z,2.90
2022-12-08T03:22:26.099Z,2.90
2022-12-08T03:24:55.215Z,2.90
2022-12-08T03:27:27.889Z,3.00
2022-12-08T03:29:58.928Z,3.00
2022-12-08T03:32:34.769Z,2.90
2022-12-08T03:35:07.658Z,2.90
2022-12-08T03:37:39.748Z,3.00
2022-12-08T03:40:10.766Z,3.00
2022-12-08T03:42:39.209Z,3.00
2022-12-08T03:45:08.720Z,3.00
2022-12-08T03:47:38.409Z,3.10
2022-12-08T03:50:08.139Z,3.10
2022-12-08T03:52:38.096Z,3.20
2022-12-08T03:55:07.433Z,3.20
2022-12-08T03:57:36.078Z,3.20
2022-12-08T04:00:06.854Z,3.20
2022-12-08T04:02:35.590Z,3.20
2022-12-08T04:05:04.185Z,3.10
2022-12-08T04:07:32.736Z,3.10
2022-12-08T04:10:03.902Z,3.10
2022-12-08T04:12:32.778Z,3.10
2022-12-08T04:15:01.297Z,3.10
2022-12-08T04:17:29.762Z,3.10
2022-12-08T04:19:58.306Z,3.20
2022-12-08T04:22:26.836Z,3.20
2022-12-08T04:24:55.496Z,3.20
2022-12-08T04:27:25.427Z,3.20
2022-12-08T04:29:53.998Z,3.30
2022-12-08T04:32:22.579Z,3.20
2022-12-08T04:34:51.049Z,3.10
2022-12-08T04:37:20.247Z,3.10
2022-12-08T04:39:48.797Z,3.10
2022-12-08T04:42:17.366Z,3.10
2022-12-08T04:44:47.297Z,3.10
2022-12-08T04:47:15.751Z,3.00
2022-12-08T04:49:44.796Z,3.00
2022-12-08T04:52:13.279Z,3.00
2022-12-08T04:54:41.846Z,3.00
2022-12-08T04:57:10.407Z,3.00
2022-12-08T04:59:38.966Z,3.00
2022-12-08T05:02:09.044Z,3.00
2022-12-08T05:04:37.676Z,3.00
2022-12-08T05:07:06.186Z,3.00
2022-12-08T05:09:34.656Z,3.00
2022-12-08T05:12:03.185Z,3.00
2022-12-08T05:14:31.786Z,3.00
2022-12-08T05:17:03.627Z,2.90
2022-12-08T05:19:36.377Z,2.90
2022-12-08T05:22:04.967Z,2.90
2022-12-08T05:24:33.527Z,2.90
2022-12-08T05:27:02.099Z,2.90
2022-12-08T05:29:30.577Z,2.90
2022-12-08T05:31:59.190Z,2.90
2022-12-08T05:34:27.927Z,2.80
2022-12-08T05:36:57.830Z,2.90
2022-12-08T05:39:26.486Z,2.90
2022-12-08T05:41:55.007Z,2.90
2022-12-08T05:44:23.576Z,2.90
2022-12-08T05:46:52.067Z,2.90
2022-12-08T05:49:20.626Z,2.90
2022-12-08T05:51:49.098Z,2.90
2022-12-08T05:54:19.597Z,2.90
2022-12-08T05:56:48.070Z,2.90
2022-12-08T05:59:16.767Z,2.90
2022-12-08T06:01:45.939Z,2.90
2022-12-08T06:04:14.446Z,2.80
2022-12-08T06:06:42.906Z,2.80
2022-12-08T06:09:12.571Z,2.80
2022-12-08T06:11:43.487Z,2.80
2022-12-08T06:14:13.137Z,2.70
2022-12-08T06:16:41.653Z,2.70
2022-12-08T06:19:13.046Z,2.70
2022-12-08T06:21:41.499Z,2.70
2022-12-08T06:24:10.277Z,2.80
2022-12-08T06:26:40.346Z,2.80
2022-12-08T06:29:10.269Z,2.90
2022-12-08T06:31:38.779Z,2.80
2022-12-08T06:34:07.396Z,2.90
2022-12-08T06:36:35.849Z,2.90
2022-12-08T06:39:04.736Z,2.80
2022-12-08T06:41:53.694Z,2.80
2022-12-08T06:44:23.765Z,2.80
2022-12-08T06:46:52.284Z,2.80
2022-12-08T06:49:20.766Z,2.80
2022-12-08T06:51:49.264Z,2.70
2022-12-08T06:54:17.806Z,2.80
2022-12-08T06:56:46.341Z,2.80
2022-12-08T06:59:14.874Z,2.80
2022-12-08T07:01:44.889Z,2.80
2022-12-08T07:04:13.497Z,2.90
2022-12-08T07:06:42.146Z,2.90
2022-12-08T07:09:10.676Z,2.90
2022-12-08T07:11:40.381Z,2.90
2022-12-08T07:14:08.909Z,2.90
2022-12-08T07:16:37.418Z,2.90
2022-12-08T07:19:07.625Z,3.00
2022-12-08T07:21:36.077Z,3.00
2022-12-08T07:24:04.657Z,2.90
2022-12-08T07:26:33.896Z,2.90
2022-12-08T07:29:02.779Z,2.90
2022-12-08T07:31:31.297Z,2.90
2022-12-08T07:34:00.334Z,2.90
2022-12-08T07:36:30.208Z,2.90
2022-12-08T07:38:58.734Z,2.90
2022-12-08T07:41:27.948Z,2.90
2022-12-08T07:43:57.597Z,3.00
2022-12-08T07:46:28.076Z,3.00
2022-12-08T07:48:57.282Z,2.90
2022-12-08T07:51:26.188Z,2.90
2022-12-08T07:53:56.209Z,3.00
2022-12-08T07:56:25.736Z,3.00
2022-12-08T07:58:54.437Z,2.90
2022-12-08T08:01:25.808Z,2.90
2022-12-08T08:03:55.003Z,2.90
2022-12-08T08:06:23.473Z,2.90
2022-12-08T08:08:51.917Z,2.90
2022-12-08T08:11:22.141Z,2.90
2022-12-08T08:13:50.930Z,3.00
2022-12-08T08:16:20.605Z,3.00
2022-12-08T08:18:50.132Z,3.00
2022-12-08T08:21:44.552Z,3.00
2022-12-08T08:24:08.463Z,3.10
2022-12-08T08:26:39.125Z,3.10
2022-12-08T08:29:07.562Z,3.20
2022-12-08T08:31:36.107Z,3.20
2022-12-08T08:34:06.473Z,3.30
2022-12-08T08:36:35.179Z,3.30
2022-12-08T08:39:04.037Z,3.40
2022-12-08T08:41:33.166Z,3.40
2022-12-08T08:44:03.070Z,3.40
2022-12-08T08:46:32.066Z,3.40
2022-12-08T08:49:00.577Z,3.50
2022-12-08T08:51:29.077Z,3.50
2022-12-08T08:53:57.917Z,3.50
2022-12-08T08:56:26.867Z,3.40
2022-12-08T08:58:55.688Z,3.40
2022-12-08T09:01:27.421Z,3.30
2022-12-08T09:03:57.125Z,3.20
2022-12-08T09:06:26.343Z,3.20
2022-12-08T09:08:55.097Z,3.20
2022-12-08T09:11:24.248Z,3.10
2022-12-08T09:13:53.547Z,3.10
2022-12-08T09:16:23.430Z,3.20
2022-12-08T09:18:53.565Z,3.20
2022-12-08T09:21:25.889Z,3.20
2022-12-08T09:23:56.763Z,3.40
2022-12-08T09:26:26.110Z,3.50
2022-12-08T09:28:56.091Z,3.40
2022-12-08T09:31:25.727Z,3.50
2022-12-08T09:33:56.607Z,3.50
2022-12-08T09:36:25.042Z,3.40
2022-12-08T09:38:56.945Z,3.40
2022-12-08T09:41:40.337Z,3.40
2022-12-08T09:44:44.321Z,3.40
2022-12-08T09:47:20.893Z,3.40
2022-12-08T09:49:57.123Z,3.40
2022-12-08T09:52:29.328Z,3.40
2022-12-08T09:55:00.831Z,3.30
2022-12-08T09:57:30.966Z,3.30
2022-12-08T10:00:05.149Z,3.30
2022-12-08T10:02:34.077Z,3.30
2022-12-08T10:05:04.113Z,3.20
2022-12-08T10:07:40.308Z,3.20
2022-12-08T10:10:22.227Z,3.10
2022-12-08T10:12:56.042Z,3.00
2022-12-08T10:15:40.601Z,2.90
2022-12-08T10:18:16.577Z,2.90
2022-12-08T10:20:48.946Z,2.90
2022-12-08T10:23:28.445Z,2.90
2022-12-08T10:26:02.426Z,3.00
2022-12-08T10:28:31.300Z,3.00
2022-12-08T10:30:59.792Z,3.00
2022-12-08T10:33:29.328Z,3.00
2022-12-08T10:36:03.112Z,3.00
2022-12-08T10:38:33.137Z,3.10
2022-12-08T10:41:06.188Z,3.20
2022-12-08T10:43:35.666Z,3.30
2022-12-08T10:46:12.605Z,3.40
2022-12-08T10:48:50.340Z,3.50
2022-12-08T10:51:31.166Z,3.50
2022-12-08T10:53:59.796Z,3.50
2022-12-08T10:56:29.975Z,3.60
2022-12-08T10:59:16.101Z,3.70
2022-12-08T11:01:48.314Z,3.80
2022-12-08T11:04:20.188Z,4.10
2022-12-08T11:06:51.921Z,4.20
2022-12-08T11:09:28.080Z,4.20
2022-12-08T11:11:59.421Z,4.30
2022-12-08T11:14:30.498Z,4.50
2022-12-08T11:17:14.939Z,4.70
2022-12-08T11:19:46.779Z,4.70
2022-12-08T11:22:28.341Z,4.50
2022-12-08T11:25:11.641Z,4.30
2022-12-08T11:27:43.596Z,4.20
2022-12-08T11:30:17.195Z,4.10
2022-12-08T11:32:47.809Z,4.10
2022-12-08T11:35:24.202Z,4.00
2022-12-08T11:38:08.112Z,4.10
2022-12-08T11:40:46.237Z,4.10
2022-12-08T11:43:19.946Z,4.10
2022-12-08T11:45:55.933Z,4.20
2022-12-08T11:48:31.253Z,4.20
2022-12-08T11:51:04.993Z,4.20
2022-12-08T11:53:40.771Z,4.10
2022-12-08T11:56:17.964Z,4.10
2022-12-08T11:58:49.748Z,4.10
2022-12-08T12:01:22.318Z,4.10
2022-12-08T12:03:59.940Z,4.00
2022-12-08T12:06:55.874Z,4.00
2022-12-08T12:09:38.684Z,3.90
2022-12-08T12:12:16.671Z,3.90
2022-12-08T12:15:22.655Z,3.80
2022-12-08T12:17:54.283Z,3.70
2022-12-08T12:20:28.082Z,3.60
2022-12-08T12:23:01.943Z,3.60
2022-12-08T12:25:33.199Z,3.50
2022-12-08T12:28:04.693Z,3.40
2022-12-08T12:30:53.405Z,3.40
2022-12-08T12:33:23.795Z,3.40
2022-12-08T12:35:52.879Z,3.50
2022-12-08T12:38:44.767Z,3.40
2022-12-08T12:41:19.752Z,3.50
2022-12-08T12:44:10.370Z,3.50
2022-12-08T12:46:57.172Z,3.60
2022-12-08T12:49:52.867Z,3.60
2022-12-08T12:52:51.836Z,3.60
2022-12-08T12:55:58.763Z,3.60
2022-12-08T12:58:41.077Z,3.60
2022-12-08T13:01:39.164Z,3.60
2022-12-08T13:04:10.636Z,3.60
2022-12-08T13:06:42.382Z,3.60
2022-12-08T13:09:23.687Z,3.60
2022-12-08T13:11:55.950Z,3.60
2022-12-08T13:14:37.460Z,3.60
2022-12-08T13:17:12.308Z,3.50
2022-12-08T13:19:44.348Z,3.60
2022-12-08T13:23:02.446Z,3.50
2022-12-08T13:25:52.551Z,3.50
2022-12-08T13:28:24.672Z,3.50
2022-12-08T13:30:55.756Z,3.50
2022-12-08T13:33:31.200Z,3.40
2022-12-08T13:36:13.027Z,3.40
2022-12-08T13:38:45.596Z,3.50
2022-12-08T13:41:20.653Z,3.50
2022-12-08T13:44:39.172Z,3.60
2022-12-08T13:51:23.563Z,3.60
2022-12-08T13:58:19.430Z,3.50
2022-12-08T14:01:02.134Z,3.50
2022-12-08T14:03:32.578Z,3.50
2022-12-08T14:06:12.980Z,3.40
2022-12-08T14:09:06.712Z,3.40
2022-12-08T14:11:37.298Z,3.40
2022-12-08T14:14:09.054Z,3.40
2022-12-08T14:16:40.590Z,3.40
2022-12-08T14:19:19.158Z,3.50
2022-12-08T14:21:57.840Z,3.50
2022-12-08T14:24:27.572Z,3.40
2022-12-08T14:26:58.188Z,3.50
2022-12-08T14:29:42.053Z,3.50
2022-12-08T14:32:26.917Z,3.50
2022-12-08T14:35:00.917Z,3.50
2022-12-08T14:37:32.608Z,3.50
2022-12-08T14:40:04.272Z,3.40
2022-12-08T14:42:43.157Z,3.30
2022-12-08T14:45:13.888Z,3.40
2022-12-08T14:47:42.676Z,3.40
2022-12-08T14:50:39.927Z,3.30
2022-12-08T14:53:14.277Z,3.40
2022-12-08T14:55:44.429Z,3.40
2022-12-08T14:58:19.448Z,3.40
2022-12-08T15:00:51.607Z,3.40
2022-12-08T15:03:22.928Z,3.40
2022-12-08T15:05:57.389Z,3.30
2022-12-08T15:08:25.977Z,3.30
2022-12-08T15:11:26.299Z,3.20
2022-12-08T15:13:55.887Z,3.20
2022-12-08T15:16:30.040Z,3.20
2022-12-08T15:19:08.030Z,3.10
2022-12-08T15:21:40.357Z,3.10
2022-12-08T15:24:13.519Z,3.10
2022-12-08T15:26:43.889Z,3.10
2022-12-08T15:29:14.768Z,3.10
2022-12-08T15:31:43.580Z,3.00
2022-12-08T15:34:12.606Z,2.90
2022-12-08T15:36:43.355Z,2.90
2022-12-08T15:39:29.358Z,2.90
2022-12-08T15:41:58.363Z,2.90
2022-12-08T15:44:27.117Z,3.00
2022-12-08T15:46:56.686Z,2.90
2022-12-08T15:49:26.860Z,2.80
2022-12-08T15:52:09.298Z,2.70
2022-12-08T15:54:40.598Z,2.70
2022-12-08T15:57:25.269Z,2.70
2022-12-08T16:00:43.677Z,2.60
2022-12-08T16:03:34.211Z,2.60
2022-12-08T16:06:38.986Z,2.60
2022-12-08T16:09:00.761Z,2.60
2022-12-08T16:12:11.329Z,2.60
2022-12-08T16:17:30.747Z,2.60
2022-12-08T16:20:00.347Z,2.60
2022-12-08T16:25:23.915Z,2.60
2022-12-08T16:28:02.866Z,2.60
2022-12-08T16:30:35.223Z,2.60
2022-12-08T16:33:03.978Z,2.60
2022-12-08T16:35:32.821Z,2.60
2022-12-08T16:38:01.579Z,2.60
2022-12-08T16:40:32.061Z,2.60
2022-12-08T16:42:59.866Z,2.60
2022-12-08T16:45:30.920Z,2.60
2022-12-08T16:48:03.896Z,2.60
2022-12-08T16:50:34.528Z,2.60
2022-12-08T16:53:05.661Z,2.50
2022-12-08T16:55:36.564Z,2.60
2022-12-08T16:58:05.106Z,2.60
2022-12-08T17:00:37.055Z,2.60
2022-12-08T17:03:08.121Z,2.60
2022-12-08T17:05:37.867Z,2.60
2022-12-08T17:08:06.953Z,2.60
2022-12-08T17:10:40.366Z,2.70
2022-12-08T17:13:09.577Z,2.70
2022-12-08T17:15:38.268Z,2.70
2022-12-08T17:18:07.221Z,2.60
2022-12-08T17:20:36.361Z,2.60
2022-12-08T17:23:05.082Z,2.60
2022-12-08T17:25:33.780Z,2.60
2022-12-08T17:28:04.032Z,2.60
2022-12-08T17:30:32.777Z,2.60
2022-12-08T17:33:01.257Z,2.60
2022-12-08T17:35:30.241Z,2.60
2022-12-08T17:37:58.659Z,2.70
2022-12-08T17:40:28.433Z,2.60
2022-12-08T17:43:00.088Z,2.50
2022-12-08T17:45:30.089Z,2.50
2022-12-08T17:47:58.700Z,2.40
2022-12-08T17:50:27.419Z,2.40
2022-12-08T17:52:55.945Z,2.50
2022-12-08T17:55:24.847Z,2.50
2022-12-08T17:57:53.697Z,2.50
2022-12-08T18:00:22.996Z,2.60
2022-12-08T18:02:53.267Z,2.60
2022-12-08T18:05:22.118Z,2.60
2022-12-08T18:07:51.384Z,2.60
2022-12-08T18:10:20.927Z,2.50
2022-12-08T18:12:49.846Z,2.60
2022-12-08T18:15:21.164Z,2.50
2022-12-08T18:17:49.748Z,2.50
2022-12-08T18:20:19.967Z,2.50
2022-12-08T18:22:48.816Z,2.50
2022-12-08T18:25:18.059Z,2.60
2022-12-08T18:27:47.015Z,2.60
2022-12-08T18:30:19.636Z,2.60
2022-12-08T18:32:52.885Z,2.50
2022-12-08T18:35:27.096Z,2.50
2022-12-08T18:37:56.057Z,2.50
2022-12-08T18:40:25.048Z,2.50
2022-12-08T18:42:54.108Z,2.50
2022-12-08T18:45:23.054Z,2.40
2022-12-08T18:47:52.867Z,2.40
2022-12-08T18:50:22.014Z,2.50
2022-12-08T18:52:53.610Z,2.40
2022-12-08T18:55:22.433Z,2.40
2022-12-08T18:57:51.597Z,2.40
2022-12-08T19:00:21.758Z,2.40
2022-12-08T19:02:50.940Z,2.20
2022-12-08T19:05:20.348Z,2.10
2022-12-08T19:07:48.902Z,2.00
2022-12-08T19:10:19.618Z,1.90
2022-12-08T19:12:52.002Z,1.90
2022-12-08T19:15:21.680Z,1.70
2022-12-08T19:17:50.516Z,1.60
2022-12-08T19:20:19.799Z,1.60
2022-12-08T19:22:48.567Z,1.50
2022-12-08T19:25:19.449Z,1.50
2022-12-08T19:27:51.489Z,1.50
2022-12-08T19:30:20.397Z,1.50
2022-12-08T19:32:49.182Z,1.40
2022-12-08T19:35:18.362Z,1.30
2022-12-08T19:37:47.148Z,1.20
2022-12-08T19:40:33.957Z,1.20
2022-12-08T19:43:22.312Z,1.30
2022-12-08T19:45:51.337Z,1.10
2022-12-08T19:48:20.373Z,1.10
2022-12-08T19:50:49.107Z,1.00
2022-12-08T19:53:17.783Z,1.10
2022-12-08T19:55:46.467Z,1.00
2022-12-08T19:58:16.817Z,1.00
2022-12-08T20:00:46.146Z,1.00
2022-12-08T20:03:17.709Z,0.90
2022-12-08T20:05:48.482Z,0.90
2022-12-08T20:08:17.655Z,0.90
2022-12-08T20:10:47.288Z,0.80
2022-12-08T20:13:36.477Z,0.80
2022-12-08T20:16:05.353Z,0.70
2022-12-08T20:18:36.611Z,0.70
2022-12-08T20:21:06.071Z,0.60
2022-12-08T20:23:34.717Z,0.60
2022-12-08T20:26:06.119Z,0.60
2022-12-08T20:28:37.757Z,0.60
2022-12-08T20:31:07.078Z,0.50
2022-12-08T20:33:36.363Z,0.50
2022-12-08T20:36:07.669Z,0.40
2022-12-08T20:38:37.887Z,0.40
2022-12-08T20:41:10.507Z,0.40
2022-12-08T20:43:40.738Z,0.40
2022-12-08T20:46:10.218Z,0.40
2022-12-08T20:48:41.240Z,0.40
2022-12-08T20:51:10.376Z,0.40
2022-12-08T20:53:43.464Z,0.40
2022-12-08T20:56:16.813Z,0.40
2022-12-08T20:58:49.535Z,0.50
2022-12-08T21:01:21.346Z,0.50
2022-12-08T21:03:52.170Z,0.40
2022-12-08T21:06:27.513Z,0.40
2022-12-08T21:08:57.561Z,0.40
2022-12-08T21:11:28.154Z,0.30
2022-12-08T21:14:02.772Z,0.30
2022-12-08T21:16:33.594Z,0.30
2022-12-08T21:19:03.291Z,0.30
2022-12-08T21:21:37.964Z,0.40
2022-12-08T21:24:09.656Z,0.40
2022-12-08T21:26:38.901Z,0.40
2022-12-08T21:29:12.875Z,0.50
2022-12-08T21:31:45.118Z,0.50
2022-12-08T21:34:14.377Z,0.50
2022-12-08T21:36:43.663Z,0.40
2022-12-08T21:39:15.027Z,0.40
2022-12-08T21:42:01.926Z,0.30
2022-12-08T21:47:25.781Z,0.10
2022-12-08T21:49:54.873Z,0.10
2022-12-08T21:52:24.222Z,0.00
2022-12-08T21:54:53.906Z,-0.10
2022-12-08T21:57:23.084Z,-0.10
2022-12-08T21:59:53.131Z,0.00
2022-12-08T22:02:22.839Z,0.20
2022-12-08T22:04:52.827Z,0.20
2022-12-08T22:07:22.446Z,0.20
2022-12-08T22:09:51.226Z,-0.10
2022-12-08T22:12:19.984Z,-0.20
2022-12-08T22:14:51.080Z,-0.20
2022-12-08T22:17:21.310Z,-0.20
2022-12-08T22:19:50.350Z,-0.10
2022-12-08T22:22:18.934Z,-0.20
2022-12-08T22:24:47.542Z,-0.10
2022-12-08T22:27:16.124Z,-0.20
2022-12-08T22:29:44.866Z,-0.20
2022-12-08T22:32:13.407Z,-0.30
2022-12-08T22:34:43.285Z,-0.30
2022-12-08T22:37:11.725Z,-0.30
2022-12-08T22:39:40.544Z,-0.30
2022-12-08T22:42:09.036Z,-0.20
2022-12-08T22:44:37.505Z,-0.20
2022-12-08T22:47:06.931Z,-0.10
2022-12-08T22:49:36.615Z,0.00
2022-12-08T22:52:10.083Z,0.00
2022-12-08T22:54:38.627Z,0.00
2022-12-08T22:57:07.074Z,0.10
2022-12-08T22:59:35.669Z,0.10
2022-12-08T23:02:04.160Z,0.10
2022-12-08T23:04:32.897Z,0.20
2022-12-08T23:07:01.780Z,0.20
2022-12-08T23:09:31.807Z,0.30
2022-12-08T23:12:00.392Z,0.30
2022-12-08T23:14:28.969Z,0.30
2022-12-08T23:16:57.657Z,0.30
2022-12-08T23:19:26.558Z,0.40
2022-12-08T23:21:55.039Z,0.20
2022-12-08T23:24:23.618Z,0.20
2022-12-08T23:26:53.508Z,0.20
2022-12-08T23:29:21.999Z,0.30
2022-12-08T23:31:50.601Z,0.20
2022-12-08T23:34:19.409Z,0.20
2022-12-08T23:36:48.086Z,0.20
2022-12-08T23:39:16.781Z,0.10
2022-12-08T23:41:45.430Z,0.10
2022-12-08T23:44:15.459Z,0.10
2022-12-08T23:46:43.942Z,0.20
2022-12-08T23:49:12.772Z,0.20
2022-12-08T23:51:41.431Z,0.20
2022-12-08T23:54:10.349Z,0.10
2022-12-08T23:56:39.301Z,0.20
2022-12-08T23:59:07.827Z,0.30
